Time;durP1;ratioP1;P1;durP2;ratioP2;P2;SDS_P1;SDS_P2;PMS_P1;PMS_P2;Temp;Humidity;BMP_temperature;BMP_pressure;BME280_temperature;BME280_humidity;BME280_pressure;Samples;Min_cycle;Max_cycle;Signal;HPM_P1;HPM_P2
2021/04/15 00:09:30;;;;;;;8.50;5.65;;;2.50;99.90;;;;;;20916974;28;20037;-79
2021/04/15 00:19:31;;;;;;;8.82;5.05;;;2.20;99.90;;;;;;20914663;28;20179;-79
2021/04/15 00:29:31;;;;;;;9.20;5.07;;;2.10;99.90;;;;;;20883398;23;20049;-74
2021/04/15 00:39:32;;;;;;;8.27;5.57;;;2.10;99.90;;;;;;20807298;28;20033;-75
2021/04/15 00:49:40;;;;;;;10.02;5.88;;;2.10;99.90;;;;;;20824949;28;20034;-74
2021/04/15 00:59:42;;;;;;;9.00;6.03;;;1.60;99.90;;;;;;20824298;28;20052;-75
2021/04/15 01:09:43;;;;;;;8.02;5.60;;;1.40;99.90;;;;;;20840310;28;20546;-74
2021/04/15 01:20:00;;;;;;;8.32;4.93;;;1.70;99.90;;;;;;20839293;28;20064;-74
2021/04/15 01:30:13;;;;;;;8.65;5.43;;;1.60;99.90;;;;;;20838697;28;20132;-74
2021/04/15 01:40:33;;;;;;;13.80;4.97;;;1.20;99.90;;;;;;20837531;28;20037;-74
2021/04/15 01:50:52;;;;;;;6.82;4.72;;;1.30;99.90;;;;;;20837209;28;20060;-74
2021/04/15 02:01:00;;;;;;;7.75;4.70;;;1.40;99.90;;;;;;20836343;28;20048;-74
2021/04/15 02:11:10;;;;;;;11.80;5.93;;;1.20;99.90;;;;;;20835155;28;20091;-74
2021/04/15 02:21:25;;;;;;;9.75;5.65;;;0.90;99.90;;;;;;20834807;28;20551;-74
2021/04/15 02:31:35;;;;;;;9.05;5.13;;;0.80;99.90;;;;;;20834214;28;20424;-74
2021/04/15 02:41:38;;;;;;;5.82;4.05;;;0.80;99.90;;;;;;20833411;28;20500;-74
2021/04/15 02:52:01;;;;;;;9.55;5.53;;;0.60;99.90;;;;;;20832542;28;20129;-74
2021/04/15 03:02:11;;;;;;;10.70;5.82;;;0.50;99.90;;;;;;20831503;28;20120;-74
2021/04/15 03:12:18;;;;;;;13.35;6.55;;;0.40;99.90;;;;;;20831043;28;20113;-74
2021/04/15 03:22:43;;;;;;;9.40;5.53;;;0.40;99.90;;;;;;20829522;28;20052;-74
2021/04/15 03:33:02;;;;;;;15.02;6.78;;;0.10;99.90;;;;;;20829058;28;20045;-74
2021/04/15 03:43:20;;;;;;;13.93;5.53;;;0.10;99.90;;;;;;20828641;28;20063;-74
2021/04/15 03:53:44;;;;;;;12.80;6.65;;;0.10;99.90;;;;;;20827658;28;20500;-74
2021/04/15 04:03:54;;;;;;;17.17;7.65;;;0.00;99.90;;;;;;20827006;28;20045;-74
2021/04/15 04:14:00;;;;;;;8.15;4.82;;;-0.10;99.90;;;;;;20840488;28;20045;-77
2021/04/15 04:24:44;;;;;;;9.55;5.28;;;-0.20;99.90;;;;;;20845557;28;20080;-77
2021/04/15 04:34:55;;;;;;;8.68;5.20;;;-0.30;99.90;;;;;;20843764;28;20081;-77
2021/04/15 04:44:58;;;;;;;13.20;5.77;;;-0.60;99.90;;;;;;20820302;28;20037;-77
2021/04/15 04:55:00;;;;;;;11.68;6.35;;;-0.70;99.90;;;;;;20840082;28;20488;-77
2021/04/15 05:05:08;;;;;;;12.75;5.47;;;-0.60;99.90;;;;;;20842379;28;20511;-77
2021/04/15 05:15:12;;;;;;;15.25;5.75;;;-0.50;99.90;;;;;;20842571;28;20054;-78
2021/04/15 05:25:45;;;;;;;15.27;6.70;;;-0.20;99.90;;;;;;20822231;28;20128;-77
2021/04/15 05:35:55;;;;;;;9.98;5.53;;;0.00;99.90;;;;;;20756177;28;20121;-78
2021/04/15 05:46:10;;;;;;;9.93;5.90;;;0.40;99.90;;;;;;20806958;28;20041;-75
2021/04/15 05:56:18;;;;;;;12.60;6.63;;;1.00;99.90;;;;;;20752817;28;20165;-74
2021/04/15 06:06:21;;;;;;;10.95;6.88;;;1.20;99.90;;;;;;20766595;28;20053;-74
2021/04/15 06:16:31;;;;;;;10.95;6.07;;;1.60;99.90;;;;;;20753139;28;20401;-74
2021/04/15 06:37:00;;;;;;;13.48;7.15;;;2.70;99.90;;;;;;20784674;28;20137;-81
2021/04/15 06:47:13;;;;;;;12.38;7.70;;;3.10;99.90;;;;;;20756584;28;20506;-79
2021/04/15 06:57:41;;;;;;;21.02;7.82;;;3.60;99.90;;;;;;20765516;28;20552;-78
2021/04/15 07:08:00;;;;;;;13.13;7.65;;;4.20;99.90;;;;;;20761146;28;20053;-79
2021/04/15 07:18:28;;;;;;;12.32;7.95;;;4.60;99.90;;;;;;20747523;28;20045;-79
2021/04/15 07:28:59;;;;;;;13.80;6.72;;;4.90;99.90;;;;;;20750031;28;20420;-79
2021/04/15 07:39:37;;;;;;;9.68;6.32;;;6.10;99.90;;;;;;20750875;28;20506;-81
2021/04/15 07:49:56;;;;;;;12.55;7.20;;;7.00;99.90;;;;;;20777739;28;20502;-81
2021/04/15 08:00:32;;;;;;;8.52;5.60;;;7.60;99.90;;;;;;20757606;28;20038;-82
2021/04/15 08:10:52;;;;;;;11.05;4.90;;;8.20;99.90;;;;;;20765805;28;20053;-82
2021/04/15 08:21:05;;;;;;;8.02;4.68;;;8.50;99.90;;;;;;20745960;28;20068;-80
2021/04/15 08:31:17;;;;;;;9.23;4.90;;;8.50;99.90;;;;;;20758388;28;20054;-80
2021/04/15 08:41:37;;;;;;;6.85;4.38;;;8.40;99.90;;;;;;20747928;28;20041;-79
2021/04/15 08:52:24;;;;;;;17.73;7.65;;;9.30;99.90;;;;;;20699935;28;20037;-82
2021/04/15 09:02:50;;;;;;;5.93;3.38;;;9.30;99.90;;;;;;20703615;28;20022;-80
2021/04/15 09:13:14;;;;;;;9.30;4.40;;;8.50;99.90;;;;;;20739569;28;20049;-83
2021/04/15 09:23:42;;;;;;;7.72;3.90;;;9.30;99.90;;;;;;20700991;28;20056;-84
2021/04/15 09:33:58;;;;;;;8.65;4.70;;;8.10;99.90;;;;;;20675391;28;20365;-81
2021/04/15 09:44:16;;;;;;;11.25;5.30;;;5.80;99.90;;;;;;20740964;28;20037;-79
2021/04/15 09:54:59;;;;;;;8.25;4.15;;;5.40;99.90;;;;;;20756794;28;20026;-79
2021/04/15 10:05:04;;;;;;;;;;;5.60;99.90;;;;;;20745772;28;20092;-82
2021/04/15 10:15:46;;;;;;;9.48;5.28;;;5.60;99.90;;;;;;20739402;28;19917;-79
2021/04/15 10:25:59;;;;;;;7.97;4.40;;;5.40;99.90;;;;;;20703596;28;20565;-79
2021/04/15 10:36:12;;;;;;;5.53;3.65;;;5.00;99.90;;;;;;20753726;28;20050;-77
2021/04/15 10:46:32;;;;;;;5.75;3.72;;;5.30;99.90;;;;;;20734355;28;20041;-81
2021/04/15 10:56:42;;;;;;;69.00;21.35;;;5.80;99.90;;;;;;20744259;28;20515;-81
2021/04/15 11:06:45;;;;;;;31.92;11.93;;;6.50;99.90;;;;;;20733771;28;20053;-80
2021/04/15 11:16:52;;;;;;;9.00;3.70;;;7.40;99.90;;;;;;20752568;28;20042;-79
2021/04/15 11:26:56;;;;;;;4.07;2.92;;;7.60;99.90;;;;;;20748527;28;20509;-80
2021/04/15 11:37:01;;;;;;;17.65;3.40;;;8.80;99.90;;;;;;20734339;28;20100;-83
2021/04/15 11:47:10;;;;;;;5.50;3.05;;;9.80;99.90;;;;;;20760258;28;20033;-83
2021/04/15 11:57:19;;;;;;;5.40;2.97;;;11.30;98.60;;;;;;20761597;28;20503;-83
2021/04/15 12:07:26;;;;;;;5.03;3.13;;;11.40;98.60;;;;;;20762712;28;20038;-85
2021/04/15 12:17:37;;;;;;;7.28;3.25;;;11.90;94.40;;;;;;20761714;28;20038;-83
2021/04/15 12:27:39;;;;;;;3.80;2.70;;;10.80;97.40;;;;;;20773946;23;20184;-74
2021/04/15 12:37:53;;;;;;;4.80;2.38;;;11.60;95.40;;;;;;20726078;28;20034;-75
2021/04/15 12:47:56;;;;;;;3.92;2.42;;;11.60;91.70;;;;;;20742963;28;20100;-75
2021/04/15 12:57:58;;;;;;;4.15;2.50;;;12.10;91.90;;;;;;20730125;28;20045;-75
2021/04/15 13:08:36;;;;;;;5.60;2.80;;;11.60;92.70;;;;;;20741295;28;20046;-75
2021/04/15 13:18:41;;;;;;;17.27;7.85;;;12.40;86.70;;;;;;20740178;28;20132;-75
2021/04/15 13:28:42;;;;;;;3.65;2.92;;;12.60;87.80;;;;;;20756379;28;20057;-74
2021/04/15 13:38:58;;;;;;;4.32;2.50;;;11.90;91.30;;;;;;20756469;28;20451;-74
2021/04/15 13:49:23;;;;;;;3.25;2.42;;;10.80;91.80;;;;;;20755522;28;20093;-74
2021/04/15 13:59:35;;;;;;;3.72;2.38;;;12.00;91.60;;;;;;20754673;28;20046;-74
2021/04/15 14:09:36;;;;;;;4.80;2.73;;;12.70;86.30;;;;;;20753418;28;20064;-74
2021/04/15 14:19:42;;;;;;;10.18;2.35;;;12.20;89.40;;;;;;20736193;28;20038;-74
2021/04/15 14:29:45;;;;;;;5.50;2.70;;;12.20;79.40;;;;;;20752869;28;20121;-74
2021/04/15 14:39:49;;;;;;;9.18;3.10;;;12.40;78.90;;;;;;20751757;28;20536;-74
2021/04/15 14:50:09;;;;;;;6.43;2.65;;;8.60;94.20;;;;;;20750797;28;20121;-74
2021/04/15 15:00:14;;;;;;;4.65;3.03;;;8.80;97.70;;;;;;20732561;28;20053;-73
2021/04/15 15:10:20;;;;;;;4.00;2.38;;;9.50;97.00;;;;;;20731688;28;20096;-74
2021/04/15 15:20:48;;;;;;;3.53;2.03;;;9.70;93.10;;;;;;20749049;28;20038;-73
2021/04/15 15:30:50;;;;;;;4.03;2.67;;;10.00;92.20;;;;;;20747617;28;20149;-74
2021/04/15 15:40:51;;;;;;;;;;;10.70;91.50;;;;;;20747404;28;20053;-74
2021/04/15 15:50:57;;;;;;;8.10;3.58;;;10.90;87.20;;;;;;20746740;28;20011;-74
2021/04/15 16:01:17;;;;;;;4.47;2.88;;;10.90;79.70;;;;;;20745403;28;20091;-74
2021/04/15 16:11:53;;;;;;;5.82;3.17;;;9.80;84.60;;;;;;20745103;28;20113;-74
2021/04/15 16:21:55;;;;;;;7.43;3.17;;;10.40;86.90;;;;;;20647799;28;20181;-73
2021/04/15 16:31:56;;;;;;;4.65;2.83;;;8.10;96.60;;;;;;20743415;28;20045;-74
2021/04/15 16:41:59;;;;;;;5.53;2.63;;;7.70;99.90;;;;;;20743393;28;20034;-74
2021/04/15 16:52:00;;;;;;;5.07;2.80;;;7.20;99.90;;;;;;20725541;28;20497;-73
2021/04/15 17:02:01;;;;;;;3.97;2.40;;;7.60;99.90;;;;;;20724930;28;20072;-74
2021/04/15 17:12:03;;;;;;;7.23;3.00;;;7.30;97.70;;;;;;20724646;28;20077;-74
2021/04/15 17:22:05;;;;;;;;;;;6.80;99.90;;;;;;20742082;28;20037;-74
2021/04/15 17:32:06;;;;;;;17.60;8.37;;;6.30;99.90;;;;;;20741222;28;20308;-73
2021/04/15 17:42:08;;;;;;;5.83;2.53;;;6.00;99.90;;;;;;20741378;28;20033;-74
2021/04/15 17:52:09;;;;;;;5.03;3.70;;;5.90;99.90;;;;;;20737752;28;20410;-74
2021/04/15 18:02:12;;;;;;;5.15;3.00;;;5.90;99.90;;;;;;20753611;28;20042;-74
2021/04/15 18:12:13;;;;;;;7.67;3.83;;;5.80;99.90;;;;;;20748389;28;20120;-74
2021/04/15 18:22:14;;;;;;;9.53;3.40;;;5.80;99.90;;;;;;20730191;28;20117;-74
2021/04/15 18:32:15;;;;;;;9.37;3.67;;;5.30;99.90;;;;;;20797741;22;20049;-79
2021/04/15 18:42:17;;;;;;;12.03;3.97;;;4.80;99.90;;;;;;20844240;28;20048;-79
2021/04/15 18:52:19;;;;;;;8.23;3.80;;;4.60;99.90;;;;;;20842423;28;20111;-79
2021/04/15 19:02:20;;;;;;;11.13;4.97;;;4.50;99.90;;;;;;20846216;28;20045;-79
2021/04/15 19:12:22;;;;;;;7.90;3.65;;;4.70;99.90;;;;;;20840176;28;20056;-79
2021/04/15 19:22:24;;;;;;;6.68;4.13;;;4.60;99.90;;;;;;20848891;28;20052;-80
2021/04/15 19:32:25;;;;;;;4.75;3.13;;;4.50;99.90;;;;;;20850947;28;20443;-80
2021/04/15 19:42:27;;;;;;;8.45;4.13;;;4.40;99.90;;;;;;20830145;28;20499;-80
2021/04/15 19:52:29;;;;;;;13.57;5.10;;;4.40;99.90;;;;;;20846362;28;20060;-79
2021/04/15 20:02:31;;;;;;;6.68;4.50;;;4.20;99.90;;;;;;20842248;28;20052;-79
2021/04/15 20:12:32;;;;;;;8.38;3.97;;;4.20;99.90;;;;;;20841973;28;20061;-79
2021/04/15 20:22:33;;;;;;;6.27;3.70;;;4.10;99.90;;;;;;20840244;28;20423;-79
2021/04/15 20:32:35;;;;;;;7.03;3.97;;;3.90;99.90;;;;;;20837792;28;20061;-78
2021/04/15 20:42:37;;;;;;;9.23;3.85;;;3.60;99.90;;;;;;20837133;28;20068;-80
2021/04/15 20:52:40;;;;;;;7.80;4.10;;;3.40;99.90;;;;;;20835556;28;20059;-78
2021/04/15 21:02:41;;;;;;;7.85;4.20;;;3.30;99.90;;;;;;20838315;28;20037;-77
2021/04/15 21:12:43;;;;;;;6.97;4.10;;;3.30;99.90;;;;;;20820609;28;20431;-79
2021/04/15 21:22:44;;;;;;;10.52;4.40;;;3.30;99.90;;;;;;20834963;28;20050;-80
2021/04/15 21:32:45;;;;;;;7.40;3.93;;;3.30;99.90;;;;;;20846719;28;20510;-81
2021/04/15 21:42:46;;;;;;;;;;;2.90;99.90;;;;;;20857332;28;20292;-80
2021/04/15 21:52:48;;;;;;;7.45;3.70;;;2.80;99.90;;;;;;20856654;28;20283;-79
2021/04/15 22:02:49;;;;;;;7.35;4.40;;;2.90;99.90;;;;;;20859631;28;20038;-80
2021/04/15 22:12:50;;;;;;;8.38;4.32;;;3.00;99.90;;;;;;20837837;28;20048;-79
2021/04/15 22:22:52;;;;;;;8.35;4.45;;;2.70;99.90;;;;;;20852012;28;20068;-80
2021/04/15 22:32:53;;;;;;;6.75;3.67;;;2.60;99.90;;;;;;20851277;28;20037;-80
2021/04/15 22:42:55;;;;;;;7.18;4.20;;;2.60;99.90;;;;;;20854295;28;20045;-80
2021/04/15 22:52:57;;;;;;;8.68;5.10;;;2.70;99.90;;;;;;20851126;28;20123;-80
2021/04/15 23:02:58;;;;;;;9.65;4.20;;;2.60;99.90;;;;;;20855660;28;20184;-80
2021/04/15 23:12:59;;;;;;;;;;;2.60;99.90;;;;;;20852916;28;20030;-78
2021/04/15 23:23:00;;;;;;;8.20;4.45;;;2.50;99.90;;;;;;20849764;28;19963;-80
2021/04/15 23:33:01;;;;;;;7.07;3.95;;;2.60;99.90;;;;;;20854589;28;20566;-78
2021/04/15 23:43:03;;;;;;;11.25;4.35;;;2.50;99.90;;;;;;20845280;28;20090;-79
2021/04/15 23:53:04;;;;;;;8.63;4.45;;;2.40;99.90;;;;;;20848061;28;20048;-80
